sensor_id;sensor_type;location;lat;lon;timestamp;P1;durP1;ratioP1;P2;durP2;ratioP2
33716;SDS011;20046;50.746;7.072;2024-03-07T00:02:49;75.88;;;38.25;;
33716;SDS011;20046;50.746;7.072;2024-03-07T00:05:15;82.93;;;38.47;;
33716;SDS011;20046;50.746;7.072;2024-03-07T00:07:42;81.85;;;39.38;;
33716;SDS011;20046;50.746;7.072;2024-03-07T00:10:08;85.35;;;39.15;;
33716;SDS011;20046;50.746;7.072;2024-03-07T00:12:34;80.22;;;38.75;;
33716;SDS011;20046;50.746;7.072;2024-03-07T00:15:01;82.22;;;39.45;;
33716;SDS011;20046;50.746;7.072;2024-03-07T00:17:27;79.80;;;38.00;;
33716;SDS011;20046;50.746;7.072;2024-03-07T00:19:52;83.10;;;40.17;;
33716;SDS011;20046;50.746;7.072;2024-03-07T00:22:18;84.45;;;40.08;;
33716;SDS011;20046;50.746;7.072;2024-03-07T00:24:43;79.50;;;39.35;;
33716;SDS011;20046;50.746;7.072;2024-03-07T00:27:12;81.85;;;38.53;;
33716;SDS011;20046;50.746;7.072;2024-03-07T00:29:39;84.40;;;39.33;;
33716;SDS011;20046;50.746;7.072;2024-03-07T00:32:05;83.78;;;39.53;;
33716;SDS011;20046;50.746;7.072;2024-03-07T00:34:32;78.25;;;38.38;;
33716;SDS011;20046;50.746;7.072;2024-03-07T00:36:58;83.80;;;39.53;;
33716;SDS011;20046;50.746;7.072;2024-03-07T00:39:24;92.13;;;40.70;;
33716;SDS011;20046;50.746;7.072;2024-03-07T00:41:50;86.70;;;40.92;;
33716;SDS011;20046;50.746;7.072;2024-03-07T00:44:16;82.07;;;40.20;;
33716;SDS011;20046;50.746;7.072;2024-03-07T00:46:42;88.00;;;40.72;;
33716;SDS011;20046;50.746;7.072;2024-03-07T00:49:07;82.50;;;40.97;;
33716;SDS011;20046;50.746;7.072;2024-03-07T00:51:33;86.13;;;40.97;;
33716;SDS011;20046;50.746;7.072;2024-03-07T00:54:00;82.43;;;39.10;;
33716;SDS011;20046;50.746;7.072;2024-03-07T00:56:26;86.43;;;40.20;;
33716;SDS011;20046;50.746;7.072;2024-03-07T00:58:53;84.13;;;40.10;;
33716;SDS011;20046;50.746;7.072;2024-03-07T01:01:19;89.82;;;39.97;;
33716;SDS011;20046;50.746;7.072;2024-03-07T01:03:44;88.15;;;40.80;;
33716;SDS011;20046;50.746;7.072;2024-03-07T01:06:10;91.00;;;40.08;;
33716;SDS011;20046;50.746;7.072;2024-03-07T01:08:36;86.30;;;39.95;;
33716;SDS011;20046;50.746;7.072;2024-03-07T01:11:03;88.93;;;40.38;;
33716;SDS011;20046;50.746;7.072;2024-03-07T01:13:37;94.82;;;42.70;;
33716;SDS011;20046;50.746;7.072;2024-03-07T01:16:03;98.68;;;41.45;;
33716;SDS011;20046;50.746;7.072;2024-03-07T01:18:29;91.55;;;41.85;;
33716;SDS011;20046;50.746;7.072;2024-03-07T01:20:58;92.18;;;41.72;;
33716;SDS011;20046;50.746;7.072;2024-03-07T01:23:27;101.93;;;44.55;;
33716;SDS011;20046;50.746;7.072;2024-03-07T01:25:57;86.68;;;39.63;;
33716;SDS011;20046;50.746;7.072;2024-03-07T01:28:23;85.13;;;39.60;;
33716;SDS011;20046;50.746;7.072;2024-03-07T01:30:50;88.97;;;40.80;;
33716;SDS011;20046;50.746;7.072;2024-03-07T01:33:16;94.53;;;41.20;;
33716;SDS011;20046;50.746;7.072;2024-03-07T01:35:41;87.28;;;38.88;;
33716;SDS011;20046;50.746;7.072;2024-03-07T01:38:07;85.43;;;38.65;;
33716;SDS011;20046;50.746;7.072;2024-03-07T01:40:35;88.50;;;40.35;;
33716;SDS011;20046;50.746;7.072;2024-03-07T01:43:01;95.15;;;41.17;;
33716;SDS011;20046;50.746;7.072;2024-03-07T01:45:27;91.65;;;41.13;;
33716;SDS011;20046;50.746;7.072;2024-03-07T01:47:53;87.80;;;40.13;;
33716;SDS011;20046;50.746;7.072;2024-03-07T01:50:20;85.03;;;37.92;;
33716;SDS011;20046;50.746;7.072;2024-03-07T01:52:46;79.88;;;37.95;;
33716;SDS011;20046;50.746;7.072;2024-03-07T01:55:13;90.03;;;38.70;;
33716;SDS011;20046;50.746;7.072;2024-03-07T01:57:39;83.63;;;37.95;;
33716;SDS011;20046;50.746;7.072;2024-03-07T02:00:05;88.32;;;38.78;;
33716;SDS011;20046;50.746;7.072;2024-03-07T02:02:40;85.85;;;38.50;;
33716;SDS011;20046;50.746;7.072;2024-03-07T02:05:07;87.63;;;38.80;;
33716;SDS011;20046;50.746;7.072;2024-03-07T02:07:33;82.22;;;39.10;;
33716;SDS011;20046;50.746;7.072;2024-03-07T02:10:02;90.32;;;39.88;;
33716;SDS011;20046;50.746;7.072;2024-03-07T02:12:29;86.45;;;38.47;;
33716;SDS011;20046;50.746;7.072;2024-03-07T02:14:57;92.93;;;38.83;;
33716;SDS011;20046;50.746;7.072;2024-03-07T02:17:23;86.63;;;39.53;;
33716;SDS011;20046;50.746;7.072;2024-03-07T02:19:50;91.53;;;38.65;;
33716;SDS011;20046;50.746;7.072;2024-03-07T02:22:15;89.45;;;39.22;;
33716;SDS011;20046;50.746;7.072;2024-03-07T02:24:41;92.38;;;38.05;;
33716;SDS011;20046;50.746;7.072;2024-03-07T02:27:07;84.18;;;38.55;;
33716;SDS011;20046;50.746;7.072;2024-03-07T02:29:34;81.70;;;38.13;;
33716;SDS011;20046;50.746;7.072;2024-03-07T02:32:01;89.93;;;37.08;;
33716;SDS011;20046;50.746;7.072;2024-03-07T02:34:27;86.50;;;38.45;;
33716;SDS011;20046;50.746;7.072;2024-03-07T02:36:53;90.82;;;38.90;;
33716;SDS011;20046;50.746;7.072;2024-03-07T02:39:19;89.03;;;40.85;;
33716;SDS011;20046;50.746;7.072;2024-03-07T02:41:45;80.75;;;37.67;;
33716;SDS011;20046;50.746;7.072;2024-03-07T02:44:12;87.80;;;38.35;;
33716;SDS011;20046;50.746;7.072;2024-03-07T02:46:39;88.70;;;38.30;;
33716;SDS011;20046;50.746;7.072;2024-03-07T02:49:05;91.63;;;38.25;;
33716;SDS011;20046;50.746;7.072;2024-03-07T02:51:30;83.13;;;36.63;;
33716;SDS011;20046;50.746;7.072;2024-03-07T02:53:56;95.43;;;38.63;;
33716;SDS011;20046;50.746;7.072;2024-03-07T02:56:23;84.28;;;35.65;;
33716;SDS011;20046;50.746;7.072;2024-03-07T02:58:48;86.28;;;37.28;;
33716;SDS011;20046;50.746;7.072;2024-03-07T03:01:14;88.32;;;37.40;;
33716;SDS011;20046;50.746;7.072;2024-03-07T03:03:40;77.85;;;36.28;;
33716;SDS011;20046;50.746;7.072;2024-03-07T03:06:07;83.47;;;36.95;;
33716;SDS011;20046;50.746;7.072;2024-03-07T03:08:33;83.00;;;38.10;;
33716;SDS011;20046;50.746;7.072;2024-03-07T03:10:59;84.82;;;36.05;;
33716;SDS011;20046;50.746;7.072;2024-03-07T03:13:25;81.28;;;36.08;;
33716;SDS011;20046;50.746;7.072;2024-03-07T03:15:54;81.43;;;36.88;;
33716;SDS011;20046;50.746;7.072;2024-03-07T03:18:23;83.60;;;38.47;;
33716;SDS011;20046;50.746;7.072;2024-03-07T03:20:51;89.53;;;37.95;;
33716;SDS011;20046;50.746;7.072;2024-03-07T03:23:17;80.93;;;35.38;;
33716;SDS011;20046;50.746;7.072;2024-03-07T03:25:43;79.82;;;35.58;;
33716;SDS011;20046;50.746;7.072;2024-03-07T03:28:10;82.82;;;37.17;;
33716;SDS011;20046;50.746;7.072;2024-03-07T03:30:39;82.78;;;35.47;;
33716;SDS011;20046;50.746;7.072;2024-03-07T03:33:08;82.32;;;35.35;;
33716;SDS011;20046;50.746;7.072;2024-03-07T03:35:35;82.38;;;34.25;;
33716;SDS011;20046;50.746;7.072;2024-03-07T03:38:01;85.30;;;34.75;;
33716;SDS011;20046;50.746;7.072;2024-03-07T03:40:27;77.20;;;35.20;;
33716;SDS011;20046;50.746;7.072;2024-03-07T03:42:53;80.63;;;33.83;;
33716;SDS011;20046;50.746;7.072;2024-03-07T03:45:18;89.55;;;34.17;;
33716;SDS011;20046;50.746;7.072;2024-03-07T03:47:44;84.20;;;33.95;;
33716;SDS011;20046;50.746;7.072;2024-03-07T03:50:10;81.07;;;34.35;;
33716;SDS011;20046;50.746;7.072;2024-03-07T03:52:37;80.10;;;33.13;;
33716;SDS011;20046;50.746;7.072;2024-03-07T03:55:04;90.47;;;36.80;;
33716;SDS011;20046;50.746;7.072;2024-03-07T03:57:31;85.10;;;35.00;;
33716;SDS011;20046;50.746;7.072;2024-03-07T03:59:57;84.03;;;36.10;;
33716;SDS011;20046;50.746;7.072;2024-03-07T04:02:22;83.88;;;34.28;;
33716;SDS011;20046;50.746;7.072;2024-03-07T04:04:49;73.20;;;32.72;;
33716;SDS011;20046;50.746;7.072;2024-03-07T04:07:16;80.65;;;34.35;;
33716;SDS011;20046;50.746;7.072;2024-03-07T04:09:42;76.35;;;34.53;;
33716;SDS011;20046;50.746;7.072;2024-03-07T04:12:08;83.28;;;35.05;;
33716;SDS011;20046;50.746;7.072;2024-03-07T04:14:36;83.63;;;34.35;;
33716;SDS011;20046;50.746;7.072;2024-03-07T04:17:05;82.05;;;35.22;;
33716;SDS011;20046;50.746;7.072;2024-03-07T04:19:33;76.95;;;34.50;;
33716;SDS011;20046;50.746;7.072;2024-03-07T04:22:05;88.90;;;35.63;;
33716;SDS011;20046;50.746;7.072;2024-03-07T04:24:33;78.68;;;33.88;;
33716;SDS011;20046;50.746;7.072;2024-03-07T04:26:59;85.93;;;35.20;;
33716;SDS011;20046;50.746;7.072;2024-03-07T04:29:26;83.60;;;33.97;;
33716;SDS011;20046;50.746;7.072;2024-03-07T04:31:58;79.40;;;34.03;;
33716;SDS011;20046;50.746;7.072;2024-03-07T04:34:24;79.28;;;32.75;;
33716;SDS011;20046;50.746;7.072;2024-03-07T04:36:50;77.35;;;33.53;;
33716;SDS011;20046;50.746;7.072;2024-03-07T04:39:16;81.22;;;33.97;;
33716;SDS011;20046;50.746;7.072;2024-03-07T04:41:53;85.93;;;36.10;;
33716;SDS011;20046;50.746;7.072;2024-03-07T04:44:19;77.93;;;32.10;;
33716;SDS011;20046;50.746;7.072;2024-03-07T04:46:49;79.20;;;34.33;;
33716;SDS011;20046;50.746;7.072;2024-03-07T04:49:20;84.40;;;34.38;;
33716;SDS011;20046;50.746;7.072;2024-03-07T04:51:49;79.25;;;32.65;;
33716;SDS011;20046;50.746;7.072;2024-03-07T04:54:19;76.28;;;32.70;;
33716;SDS011;20046;50.746;7.072;2024-03-07T04:56:46;76.65;;;32.45;;
33716;SDS011;20046;50.746;7.072;2024-03-07T04:59:12;82.78;;;32.22;;
33716;SDS011;20046;50.746;7.072;2024-03-07T05:01:41;83.25;;;32.63;;
33716;SDS011;20046;50.746;7.072;2024-03-07T05:04:07;82.13;;;34.90;;
33716;SDS011;20046;50.746;7.072;2024-03-07T05:06:33;81.32;;;34.88;;
33716;SDS011;20046;50.746;7.072;2024-03-07T05:09:02;87.32;;;35.00;;
33716;SDS011;20046;50.746;7.072;2024-03-07T05:11:31;80.63;;;32.35;;
33716;SDS011;20046;50.746;7.072;2024-03-07T05:13:57;87.22;;;34.40;;
33716;SDS011;20046;50.746;7.072;2024-03-07T05:16:26;82.75;;;34.72;;
33716;SDS011;20046;50.746;7.072;2024-03-07T05:18:52;88.63;;;35.35;;
33716;SDS011;20046;50.746;7.072;2024-03-07T05:21:20;75.80;;;33.35;;
33716;SDS011;20046;50.746;7.072;2024-03-07T05:24:07;78.68;;;32.15;;
33716;SDS011;20046;50.746;7.072;2024-03-07T05:26:35;84.75;;;35.13;;
33716;SDS011;20046;50.746;7.072;2024-03-07T05:29:08;78.78;;;32.25;;
33716;SDS011;20046;50.746;7.072;2024-03-07T05:31:35;75.47;;;31.33;;
33716;SDS011;20046;50.746;7.072;2024-03-07T05:34:11;78.20;;;31.70;;
33716;SDS011;20046;50.746;7.072;2024-03-07T05:36:38;76.15;;;32.72;;
33716;SDS011;20046;50.746;7.072;2024-03-07T05:39:09;74.25;;;31.45;;
33716;SDS011;20046;50.746;7.072;2024-03-07T05:41:36;74.80;;;31.23;;
33716;SDS011;20046;50.746;7.072;2024-03-07T05:44:05;70.85;;;31.42;;
33716;SDS011;20046;50.746;7.072;2024-03-07T05:46:35;91.18;;;34.20;;
33716;SDS011;20046;50.746;7.072;2024-03-07T05:49:02;79.50;;;31.75;;
33716;SDS011;20046;50.746;7.072;2024-03-07T05:51:28;79.15;;;32.28;;
33716;SDS011;20046;50.746;7.072;2024-03-07T05:53:54;83.65;;;32.45;;
33716;SDS011;20046;50.746;7.072;2024-03-07T05:56:20;84.30;;;34.33;;
33716;SDS011;20046;50.746;7.072;2024-03-07T05:58:45;80.78;;;32.00;;
33716;SDS011;20046;50.746;7.072;2024-03-07T06:01:11;75.72;;;32.38;;
33716;SDS011;20046;50.746;7.072;2024-03-07T06:03:37;77.93;;;32.60;;
33716;SDS011;20046;50.746;7.072;2024-03-07T06:06:02;73.85;;;32.00;;
33716;SDS011;20046;50.746;7.072;2024-03-07T06:08:31;74.68;;;32.85;;
33716;SDS011;20046;50.746;7.072;2024-03-07T06:10:57;79.20;;;31.90;;
33716;SDS011;20046;50.746;7.072;2024-03-07T06:13:23;76.18;;;31.92;;
33716;SDS011;20046;50.746;7.072;2024-03-07T06:15:48;75.50;;;32.05;;
33716;SDS011;20046;50.746;7.072;2024-03-07T06:18:14;80.97;;;33.13;;
33716;SDS011;20046;50.746;7.072;2024-03-07T06:20:40;76.15;;;33.25;;
33716;SDS011;20046;50.746;7.072;2024-03-07T06:23:06;76.90;;;33.50;;
33716;SDS011;20046;50.746;7.072;2024-03-07T06:25:32;75.80;;;32.08;;
33716;SDS011;20046;50.746;7.072;2024-03-07T06:28:12;74.88;;;31.80;;
33716;SDS011;20046;50.746;7.072;2024-03-07T06:30:39;86.47;;;33.83;;
33716;SDS011;20046;50.746;7.072;2024-03-07T06:33:09;80.82;;;32.70;;
33716;SDS011;20046;50.746;7.072;2024-03-07T06:35:36;79.82;;;32.53;;
33716;SDS011;20046;50.746;7.072;2024-03-07T06:38:11;84.32;;;34.38;;
33716;SDS011;20046;50.746;7.072;2024-03-07T06:40:38;82.75;;;33.95;;
33716;SDS011;20046;50.746;7.072;2024-03-07T06:45:36;82.72;;;33.53;;
33716;SDS011;20046;50.746;7.072;2024-03-07T06:48:04;77.75;;;32.75;;
33716;SDS011;20046;50.746;7.072;2024-03-07T06:50:32;80.25;;;33.10;;
33716;SDS011;20046;50.746;7.072;2024-03-07T06:52:57;81.18;;;33.83;;
33716;SDS011;20046;50.746;7.072;2024-03-07T06:55:23;76.88;;;31.98;;
33716;SDS011;20046;50.746;7.072;2024-03-07T06:57:49;76.97;;;33.80;;
33716;SDS011;20046;50.746;7.072;2024-03-07T07:00:15;75.05;;;33.50;;
33716;SDS011;20046;50.746;7.072;2024-03-07T07:02:47;74.65;;;31.77;;
33716;SDS011;20046;50.746;7.072;2024-03-07T07:05:13;74.47;;;32.20;;
33716;SDS011;20046;50.746;7.072;2024-03-07T07:07:43;74.25;;;31.48;;
33716;SDS011;20046;50.746;7.072;2024-03-07T07:10:13;70.75;;;30.77;;
33716;SDS011;20046;50.746;7.072;2024-03-07T07:12:44;66.68;;;30.17;;
33716;SDS011;20046;50.746;7.072;2024-03-07T07:15:10;68.35;;;31.55;;
33716;SDS011;20046;50.746;7.072;2024-03-07T07:17:37;64.95;;;29.10;;
33716;SDS011;20046;50.746;7.072;2024-03-07T07:20:03;62.78;;;28.38;;
33716;SDS011;20046;50.746;7.072;2024-03-07T07:22:35;58.33;;;28.55;;
33716;SDS011;20046;50.746;7.072;2024-03-07T07:25:02;63.35;;;29.48;;
33716;SDS011;20046;50.746;7.072;2024-03-07T07:27:29;58.85;;;27.42;;
33716;SDS011;20046;50.746;7.072;2024-03-07T07:29:58;56.83;;;27.20;;
33716;SDS011;20046;50.746;7.072;2024-03-07T07:32:24;58.10;;;27.65;;
33716;SDS011;20046;50.746;7.072;2024-03-07T07:34:50;56.20;;;25.23;;
33716;SDS011;20046;50.746;7.072;2024-03-07T07:37:15;54.72;;;28.65;;
33716;SDS011;20046;50.746;7.072;2024-03-07T07:39:41;57.55;;;27.38;;
33716;SDS011;20046;50.746;7.072;2024-03-07T07:42:06;53.47;;;26.90;;
33716;SDS011;20046;50.746;7.072;2024-03-07T07:44:34;52.42;;;25.27;;
33716;SDS011;20046;50.746;7.072;2024-03-07T07:47:00;51.17;;;26.25;;
33716;SDS011;20046;50.746;7.072;2024-03-07T07:49:26;53.67;;;27.02;;
33716;SDS011;20046;50.746;7.072;2024-03-07T07:51:52;48.17;;;25.85;;
33716;SDS011;20046;50.746;7.072;2024-03-07T07:54:18;51.60;;;26.95;;
33716;SDS011;20046;50.746;7.072;2024-03-07T07:56:45;48.67;;;24.83;;
33716;SDS011;20046;50.746;7.072;2024-03-07T07:59:12;48.50;;;23.77;;
33716;SDS011;20046;50.746;7.072;2024-03-07T08:01:38;46.42;;;23.35;;
33716;SDS011;20046;50.746;7.072;2024-03-07T08:04:04;48.03;;;22.92;;
33716;SDS011;20046;50.746;7.072;2024-03-07T08:06:31;39.20;;;21.95;;
33716;SDS011;20046;50.746;7.072;2024-03-07T08:08:56;44.88;;;22.30;;
33716;SDS011;20046;50.746;7.072;2024-03-07T08:11:22;39.78;;;21.73;;
33716;SDS011;20046;50.746;7.072;2024-03-07T08:13:47;40.58;;;21.75;;
33716;SDS011;20046;50.746;7.072;2024-03-07T08:16:15;44.17;;;22.27;;
33716;SDS011;20046;50.746;7.072;2024-03-07T08:18:41;39.05;;;21.40;;
33716;SDS011;20046;50.746;7.072;2024-03-07T08:21:07;40.22;;;21.08;;
33716;SDS011;20046;50.746;7.072;2024-03-07T08:23:36;41.45;;;21.30;;
33716;SDS011;20046;50.746;7.072;2024-03-07T08:26:02;46.15;;;24.13;;
33716;SDS011;20046;50.746;7.072;2024-03-07T08:28:27;38.08;;;21.35;;
33716;SDS011;20046;50.746;7.072;2024-03-07T08:30:53;39.22;;;21.10;;
33716;SDS011;20046;50.746;7.072;2024-03-07T08:33:19;41.15;;;21.88;;
33716;SDS011;20046;50.746;7.072;2024-03-07T08:35:46;39.42;;;22.10;;
33716;SDS011;20046;50.746;7.072;2024-03-07T08:38:12;42.60;;;22.25;;
33716;SDS011;20046;50.746;7.072;2024-03-07T08:40:38;40.53;;;21.88;;
33716;SDS011;20046;50.746;7.072;2024-03-07T08:43:03;37.45;;;20.65;;
33716;SDS011;20046;50.746;7.072;2024-03-07T08:45:32;37.88;;;20.88;;
33716;SDS011;20046;50.746;7.072;2024-03-07T08:48:00;36.40;;;19.52;;
33716;SDS011;20046;50.746;7.072;2024-03-07T08:50:28;38.60;;;19.42;;
33716;SDS011;20046;50.746;7.072;2024-03-07T08:52:55;37.30;;;20.45;;
33716;SDS011;20046;50.746;7.072;2024-03-07T08:55:22;38.80;;;20.23;;
33716;SDS011;20046;50.746;7.072;2024-03-07T08:57:49;39.28;;;20.02;;
33716;SDS011;20046;50.746;7.072;2024-03-07T09:00:17;41.80;;;21.90;;
33716;SDS011;20046;50.746;7.072;2024-03-07T09:02:49;41.25;;;20.65;;
33716;SDS011;20046;50.746;7.072;2024-03-07T09:05:19;44.45;;;21.02;;
33716;SDS011;20046;50.746;7.072;2024-03-07T09:07:47;43.80;;;22.83;;
33716;SDS011;20046;50.746;7.072;2024-03-07T09:10:13;45.67;;;20.75;;
33716;SDS011;20046;50.746;7.072;2024-03-07T09:12:45;40.20;;;21.67;;
33716;SDS011;20046;50.746;7.072;2024-03-07T09:15:15;39.47;;;20.52;;
33716;SDS011;20046;50.746;7.072;2024-03-07T09:17:41;42.28;;;21.60;;
33716;SDS011;20046;50.746;7.072;2024-03-07T09:20:07;40.22;;;21.73;;
33716;SDS011;20046;50.746;7.072;2024-03-07T09:22:39;44.22;;;21.48;;
33716;SDS011;20046;50.746;7.072;2024-03-07T09:25:08;42.60;;;22.55;;
33716;SDS011;20046;50.746;7.072;2024-03-07T09:27:35;35.25;;;18.77;;
33716;SDS011;20046;50.746;7.072;2024-03-07T09:30:01;42.35;;;20.58;;
33716;SDS011;20046;50.746;7.072;2024-03-07T09:32:26;33.30;;;19.08;;
33716;SDS011;20046;50.746;7.072;2024-03-07T09:34:53;36.60;;;20.52;;
33716;SDS011;20046;50.746;7.072;2024-03-07T09:37:19;39.03;;;19.35;;
33716;SDS011;20046;50.746;7.072;2024-03-07T09:39:46;34.60;;;19.88;;
33716;SDS011;20046;50.746;7.072;2024-03-07T09:42:12;33.50;;;18.30;;
33716;SDS011;20046;50.746;7.072;2024-03-07T09:44:42;35.65;;;19.27;;
33716;SDS011;20046;50.746;7.072;2024-03-07T09:47:11;37.05;;;19.85;;
33716;SDS011;20046;50.746;7.072;2024-03-07T09:49:38;33.40;;;19.27;;
33716;SDS011;20046;50.746;7.072;2024-03-07T09:52:06;32.72;;;18.02;;
33716;SDS011;20046;50.746;7.072;2024-03-07T09:54:36;33.88;;;19.10;;
33716;SDS011;20046;50.746;7.072;2024-03-07T09:57:03;36.70;;;19.73;;
33716;SDS011;20046;50.746;7.072;2024-03-07T09:59:32;37.47;;;20.35;;
33716;SDS011;20046;50.746;7.072;2024-03-07T10:02:00;33.53;;;18.40;;
33716;SDS011;20046;50.746;7.072;2024-03-07T10:04:31;35.03;;;19.83;;
33716;SDS011;20046;50.746;7.072;2024-03-07T10:07:08;33.88;;;19.48;;
33716;SDS011;20046;50.746;7.072;2024-03-07T10:09:37;34.88;;;18.75;;
33716;SDS011;20046;50.746;7.072;2024-03-07T10:12:03;35.90;;;18.42;;
33716;SDS011;20046;50.746;7.072;2024-03-07T10:14:31;40.90;;;19.80;;
33716;SDS011;20046;50.746;7.072;2024-03-07T10:16:57;30.58;;;18.75;;
33716;SDS011;20046;50.746;7.072;2024-03-07T10:19:23;34.97;;;19.42;;
33716;SDS011;20046;50.746;7.072;2024-03-07T10:21:50;38.47;;;19.15;;
33716;SDS011;20046;50.746;7.072;2024-03-07T10:24:16;37.97;;;19.42;;
33716;SDS011;20046;50.746;7.072;2024-03-07T10:26:42;35.40;;;18.67;;
33716;SDS011;20046;50.746;7.072;2024-03-07T10:29:08;35.15;;;19.25;;
33716;SDS011;20046;50.746;7.072;2024-03-07T10:31:34;35.75;;;18.95;;
33716;SDS011;20046;50.746;7.072;2024-03-07T10:34:02;32.55;;;18.30;;
33716;SDS011;20046;50.746;7.072;2024-03-07T10:36:29;31.77;;;18.50;;
33716;SDS011;20046;50.746;7.072;2024-03-07T10:39:02;36.72;;;19.45;;
33716;SDS011;20046;50.746;7.072;2024-03-07T10:41:36;37.25;;;19.30;;
33716;SDS011;20046;50.746;7.072;2024-03-07T10:44:07;31.98;;;19.67;;
33716;SDS011;20046;50.746;7.072;2024-03-07T10:46:36;34.97;;;19.85;;
33716;SDS011;20046;50.746;7.072;2024-03-07T10:49:02;31.52;;;17.70;;
33716;SDS011;20046;50.746;7.072;2024-03-07T10:51:33;33.88;;;18.17;;
33716;SDS011;20046;50.746;7.072;2024-03-07T10:54:24;28.67;;;18.02;;
33716;SDS011;20046;50.746;7.072;2024-03-07T11:00:00;32.30;;;18.10;;
33716;SDS011;20046;50.746;7.072;2024-03-07T11:02:55;29.27;;;17.55;;
33716;SDS011;20046;50.746;7.072;2024-03-07T11:05:21;34.88;;;17.90;;
33716;SDS011;20046;50.746;7.072;2024-03-07T11:07:54;31.52;;;18.02;;
33716;SDS011;20046;50.746;7.072;2024-03-07T11:10:24;32.10;;;17.77;;
33716;SDS011;20046;50.746;7.072;2024-03-07T11:12:50;36.13;;;18.25;;
33716;SDS011;20046;50.746;7.072;2024-03-07T11:15:17;32.90;;;17.40;;
33716;SDS011;20046;50.746;7.072;2024-03-07T11:17:45;29.58;;;17.17;;
33716;SDS011;20046;50.746;7.072;2024-03-07T11:20:18;31.45;;;18.70;;
33716;SDS011;20046;50.746;7.072;2024-03-07T11:22:47;33.50;;;16.97;;
33716;SDS011;20046;50.746;7.072;2024-03-07T11:25:16;29.90;;;15.77;;
33716;SDS011;20046;50.746;7.072;2024-03-07T11:27:50;33.20;;;16.42;;
33716;SDS011;20046;50.746;7.072;2024-03-07T11:30:20;30.02;;;16.42;;
33716;SDS011;20046;50.746;7.072;2024-03-07T11:32:47;29.80;;;16.60;;
33716;SDS011;20046;50.746;7.072;2024-03-07T11:35:18;32.58;;;16.70;;
33716;SDS011;20046;50.746;7.072;2024-03-07T11:37:57;28.80;;;16.35;;
33716;SDS011;20046;50.746;7.072;2024-03-07T11:42:53;28.75;;;15.75;;
33716;SDS011;20046;50.746;7.072;2024-03-07T11:45:21;29.50;;;15.52;;
33716;SDS011;20046;50.746;7.072;2024-03-07T11:47:54;26.25;;;15.40;;
33716;SDS011;20046;50.746;7.072;2024-03-07T11:50:33;28.30;;;15.75;;
33716;SDS011;20046;50.746;7.072;2024-03-07T11:53:03;26.35;;;15.30;;
33716;SDS011;20046;50.746;7.072;2024-03-07T11:55:31;27.60;;;15.85;;
33716;SDS011;20046;50.746;7.072;2024-03-07T11:58:19;23.65;;;14.50;;
33716;SDS011;20046;50.746;7.072;2024-03-07T12:00:50;23.58;;;13.82;;
33716;SDS011;20046;50.746;7.072;2024-03-07T12:03:18;21.90;;;13.43;;
33716;SDS011;20046;50.746;7.072;2024-03-07T12:05:46;23.75;;;13.02;;
33716;SDS011;20046;50.746;7.072;2024-03-07T12:08:14;25.92;;;13.82;;
33716;SDS011;20046;50.746;7.072;2024-03-07T12:10:40;23.73;;;12.60;;
33716;SDS011;20046;50.746;7.072;2024-03-07T12:13:10;20.52;;;12.30;;
33716;SDS011;20046;50.746;7.072;2024-03-07T12:15:37;20.52;;;12.65;;
33716;SDS011;20046;50.746;7.072;2024-03-07T12:18:04;19.80;;;11.52;;
33716;SDS011;20046;50.746;7.072;2024-03-07T12:20:37;22.50;;;11.70;;
33716;SDS011;20046;50.746;7.072;2024-03-07T12:23:03;26.75;;;12.85;;
33716;SDS011;20046;50.746;7.072;2024-03-07T12:25:36;22.10;;;12.75;;
33716;SDS011;20046;50.746;7.072;2024-03-07T12:30:30;21.90;;;12.88;;
33716;SDS011;20046;50.746;7.072;2024-03-07T12:32:58;22.45;;;12.32;;
33716;SDS011;20046;50.746;7.072;2024-03-07T12:35:24;21.95;;;12.10;;
33716;SDS011;20046;50.746;7.072;2024-03-07T12:37:50;21.52;;;11.57;;
33716;SDS011;20046;50.746;7.072;2024-03-07T12:40:19;20.48;;;11.52;;
33716;SDS011;20046;50.746;7.072;2024-03-07T12:42:48;20.90;;;11.90;;
33716;SDS011;20046;50.746;7.072;2024-03-07T12:45:18;23.45;;;12.55;;
33716;SDS011;20046;50.746;7.072;2024-03-07T12:47:46;23.25;;;12.25;;
33716;SDS011;20046;50.746;7.072;2024-03-07T12:50:15;32.22;;;13.30;;
33716;SDS011;20046;50.746;7.072;2024-03-07T12:52:41;21.50;;;12.18;;
33716;SDS011;20046;50.746;7.072;2024-03-07T12:55:07;19.48;;;11.82;;
33716;SDS011;20046;50.746;7.072;2024-03-07T12:57:33;19.40;;;10.55;;
33716;SDS011;20046;50.746;7.072;2024-03-07T12:59:58;22.25;;;11.35;;
33716;SDS011;20046;50.746;7.072;2024-03-07T13:02:24;19.25;;;11.07;;
33716;SDS011;20046;50.746;7.072;2024-03-07T13:04:52;20.67;;;11.30;;
33716;SDS011;20046;50.746;7.072;2024-03-07T13:07:18;20.75;;;10.73;;
33716;SDS011;20046;50.746;7.072;2024-03-07T13:09:43;19.92;;;10.57;;
33716;SDS011;20046;50.746;7.072;2024-03-07T13:12:09;17.13;;;10.80;;
33716;SDS011;20046;50.746;7.072;2024-03-07T13:14:35;17.77;;;10.00;;
33716;SDS011;20046;50.746;7.072;2024-03-07T13:17:01;23.35;;;11.07;;
33716;SDS011;20046;50.746;7.072;2024-03-07T13:19:33;19.25;;;11.07;;
33716;SDS011;20046;50.746;7.072;2024-03-07T13:21:59;23.45;;;12.52;;
33716;SDS011;20046;50.746;7.072;2024-03-07T13:24:25;23.45;;;11.60;;
33716;SDS011;20046;50.746;7.072;2024-03-07T13:26:52;23.60;;;11.38;;
33716;SDS011;20046;50.746;7.072;2024-03-07T13:29:19;22.90;;;13.00;;
33716;SDS011;20046;50.746;7.072;2024-03-07T13:31:49;25.15;;;13.43;;
33716;SDS011;20046;50.746;7.072;2024-03-07T13:34:16;25.33;;;13.43;;
33716;SDS011;20046;50.746;7.072;2024-03-07T13:36:42;23.67;;;13.20;;
33716;SDS011;20046;50.746;7.072;2024-03-07T13:39:09;24.10;;;13.23;;
33716;SDS011;20046;50.746;7.072;2024-03-07T13:41:41;23.48;;;13.23;;
33716;SDS011;20046;50.746;7.072;2024-03-07T13:44:08;23.73;;;13.18;;
33716;SDS011;20046;50.746;7.072;2024-03-07T13:46:34;27.40;;;12.88;;
33716;SDS011;20046;50.746;7.072;2024-03-07T13:49:00;23.40;;;12.75;;
33716;SDS011;20046;50.746;7.072;2024-03-07T13:51:40;23.17;;;12.63;;
33716;SDS011;20046;50.746;7.072;2024-03-07T13:54:18;26.23;;;13.07;;
33716;SDS011;20046;50.746;7.072;2024-03-07T14:08:19;25.25;;;13.73;;
33716;SDS011;20046;50.746;7.072;2024-03-07T14:22:13;24.50;;;11.93;;
33716;SDS011;20046;50.746;7.072;2024-03-07T14:27:51;20.35;;;11.60;;
33716;SDS011;20046;50.746;7.072;2024-03-07T14:30:53;24.98;;;12.45;;
33716;SDS011;20046;50.746;7.072;2024-03-07T14:33:31;21.98;;;12.70;;
33716;SDS011;20046;50.746;7.072;2024-03-07T14:36:02;25.15;;;12.93;;
33716;SDS011;20046;50.746;7.072;2024-03-07T14:41:13;24.73;;;13.65;;
33716;SDS011;20046;50.746;7.072;2024-03-07T14:43:40;24.02;;;12.40;;
33716;SDS011;20046;50.746;7.072;2024-03-07T14:46:09;25.13;;;12.60;;
33716;SDS011;20046;50.746;7.072;2024-03-07T14:48:37;25.98;;;13.27;;
33716;SDS011;20046;50.746;7.072;2024-03-07T14:51:04;26.13;;;12.90;;
33716;SDS011;20046;50.746;7.072;2024-03-07T14:53:32;26.00;;;13.70;;
33716;SDS011;20046;50.746;7.072;2024-03-07T14:55:58;25.27;;;12.55;;
33716;SDS011;20046;50.746;7.072;2024-03-07T14:58:24;23.27;;;13.38;;
33716;SDS011;20046;50.746;7.072;2024-03-07T15:00:50;24.88;;;12.63;;
33716;SDS011;20046;50.746;7.072;2024-03-07T15:03:18;21.02;;;12.45;;
33716;SDS011;20046;50.746;7.072;2024-03-07T15:05:44;25.08;;;12.57;;